sensor_id;sensor_type;location;lat;lon;timestamp;P1;durP1;ratioP1;P2;durP2;ratioP2
27003;SDS011;14546;47.590;19.022;2023-04-03T00:01:12;10.77;;;7.20;;
27003;SDS011;14546;47.590;19.022;2023-04-03T00:03:38;8.48;;;6.70;;
27003;SDS011;14546;47.590;19.022;2023-04-03T00:06:04;12.00;;;7.50;;
27003;SDS011;14546;47.590;19.022;2023-04-03T00:08:31;10.27;;;7.03;;
27003;SDS011;14546;47.590;19.022;2023-04-03T00:11:01;9.73;;;7.47;;
27003;SDS011;14546;47.590;19.022;2023-04-03T00:13:27;10.13;;;7.82;;
27003;SDS011;14546;47.590;19.022;2023-04-03T00:15:53;11.45;;;7.88;;
27003;SDS011;14546;47.590;19.022;2023-04-03T00:18:19;11.82;;;7.95;;
27003;SDS011;14546;47.590;19.022;2023-04-03T00:20:45;11.30;;;8.50;;
27003;SDS011;14546;47.590;19.022;2023-04-03T00:23:11;10.90;;;7.55;;
27003;SDS011;14546;47.590;19.022;2023-04-03T00:25:37;9.30;;;7.00;;
27003;SDS011;14546;47.590;19.022;2023-04-03T00:28:03;10.52;;;7.22;;
27003;SDS011;14546;47.590;19.022;2023-04-03T00:30:29;11.13;;;6.88;;
27003;SDS011;14546;47.590;19.022;2023-04-03T00:32:55;9.07;;;6.63;;
27003;SDS011;14546;47.590;19.022;2023-04-03T00:35:21;10.65;;;7.20;;
27003;SDS011;14546;47.590;19.022;2023-04-03T00:37:50;11.32;;;7.20;;
27003;SDS011;14546;47.590;19.022;2023-04-03T00:40:17;10.50;;;7.57;;
27003;SDS011;14546;47.590;19.022;2023-04-03T00:42:43;8.55;;;6.32;;
27003;SDS011;14546;47.590;19.022;2023-04-03T00:47:37;8.60;;;6.32;;
27003;SDS011;14546;47.590;19.022;2023-04-03T00:50:04;9.57;;;6.82;;
27003;SDS011;14546;47.590;19.022;2023-04-03T00:52:30;9.35;;;6.63;;
27003;SDS011;14546;47.590;19.022;2023-04-03T00:54:59;7.85;;;6.22;;
27003;SDS011;14546;47.590;19.022;2023-04-03T00:57:29;8.95;;;6.03;;
27003;SDS011;14546;47.590;19.022;2023-04-03T01:00:00;8.05;;;5.90;;
27003;SDS011;14546;47.590;19.022;2023-04-03T01:02:29;8.25;;;6.10;;
27003;SDS011;14546;47.590;19.022;2023-04-03T01:04:55;8.00;;;5.63;;
27003;SDS011;14546;47.590;19.022;2023-04-03T01:07:26;7.45;;;5.90;;
27003;SDS011;14546;47.590;19.022;2023-04-03T01:12:25;9.77;;;6.22;;
27003;SDS011;14546;47.590;19.022;2023-04-03T01:15:01;7.85;;;5.72;;
27003;SDS011;14546;47.590;19.022;2023-04-03T01:17:38;8.23;;;6.25;;
27003;SDS011;14546;47.590;19.022;2023-04-03T01:25:56;7.20;;;5.47;;
27003;SDS011;14546;47.590;19.022;2023-04-03T01:28:39;8.00;;;5.65;;
27003;SDS011;14546;47.590;19.022;2023-04-03T01:33:45;6.95;;;5.40;;
27003;SDS011;14546;47.590;19.022;2023-04-03T01:36:13;7.57;;;5.25;;
27003;SDS011;14546;47.590;19.022;2023-04-03T01:38:44;8.07;;;4.60;;
27003;SDS011;14546;47.590;19.022;2023-04-03T01:41:10;6.85;;;4.82;;
27003;SDS011;14546;47.590;19.022;2023-04-03T01:43:36;8.23;;;5.32;;
27003;SDS011;14546;47.590;19.022;2023-04-03T01:46:01;7.10;;;4.85;;
27003;SDS011;14546;47.590;19.022;2023-04-03T01:48:27;7.28;;;4.82;;
27003;SDS011;14546;47.590;19.022;2023-04-03T01:50:53;9.02;;;5.03;;
27003;SDS011;14546;47.590;19.022;2023-04-03T01:53:19;7.28;;;4.88;;
27003;SDS011;14546;47.590;19.022;2023-04-03T01:55:44;6.88;;;5.05;;
27003;SDS011;14546;47.590;19.022;2023-04-03T01:58:10;6.30;;;4.28;;
27003;SDS011;14546;47.590;19.022;2023-04-03T02:00:36;5.60;;;4.70;;
27003;SDS011;14546;47.590;19.022;2023-04-03T02:03:02;7.97;;;4.63;;
27003;SDS011;14546;47.590;19.022;2023-04-03T02:05:28;6.78;;;4.43;;
27003;SDS011;14546;47.590;19.022;2023-04-03T02:07:54;6.10;;;4.00;;
27003;SDS011;14546;47.590;19.022;2023-04-03T02:10:20;7.32;;;3.65;;
27003;SDS011;14546;47.590;19.022;2023-04-03T02:12:46;6.18;;;4.25;;
27003;SDS011;14546;47.590;19.022;2023-04-03T02:15:11;5.80;;;4.40;;
27003;SDS011;14546;47.590;19.022;2023-04-03T02:17:37;8.70;;;5.00;;
27003;SDS011;14546;47.590;19.022;2023-04-03T02:20:03;4.78;;;4.15;;
27003;SDS011;14546;47.590;19.022;2023-04-03T02:22:29;7.55;;;4.30;;
27003;SDS011;14546;47.590;19.022;2023-04-03T02:24:55;6.75;;;4.35;;
27003;SDS011;14546;47.590;19.022;2023-04-03T02:27:20;6.65;;;4.30;;
27003;SDS011;14546;47.590;19.022;2023-04-03T02:29:46;6.75;;;4.20;;
27003;SDS011;14546;47.590;19.022;2023-04-03T02:32:12;6.47;;;4.13;;
27003;SDS011;14546;47.590;19.022;2023-04-03T02:34:38;6.05;;;4.38;;
27003;SDS011;14546;47.590;19.022;2023-04-03T02:37:03;6.78;;;3.97;;
27003;SDS011;14546;47.590;19.022;2023-04-03T02:39:29;5.75;;;4.28;;
27003;SDS011;14546;47.590;19.022;2023-04-03T02:41:55;5.03;;;4.10;;
27003;SDS011;14546;47.590;19.022;2023-04-03T02:44:21;5.43;;;4.18;;
27003;SDS011;14546;47.590;19.022;2023-04-03T02:46:48;6.38;;;4.43;;
27003;SDS011;14546;47.590;19.022;2023-04-03T02:49:14;7.03;;;4.97;;
27003;SDS011;14546;47.590;19.022;2023-04-03T02:51:40;7.70;;;5.07;;
27003;SDS011;14546;47.590;19.022;2023-04-03T02:54:06;6.47;;;4.53;;
27003;SDS011;14546;47.590;19.022;2023-04-03T02:56:32;6.07;;;4.93;;
27003;SDS011;14546;47.590;19.022;2023-04-03T02:58:58;6.65;;;4.30;;
27003;SDS011;14546;47.590;19.022;2023-04-03T03:01:23;6.63;;;4.32;;
27003;SDS011;14546;47.590;19.022;2023-04-03T03:03:49;6.88;;;4.72;;
27003;SDS011;14546;47.590;19.022;2023-04-03T03:06:16;7.60;;;5.10;;
27003;SDS011;14546;47.590;19.022;2023-04-03T03:08:42;6.57;;;4.50;;
27003;SDS011;14546;47.590;19.022;2023-04-03T03:11:09;6.03;;;4.70;;
27003;SDS011;14546;47.590;19.022;2023-04-03T03:13:35;6.88;;;4.88;;
27003;SDS011;14546;47.590;19.022;2023-04-03T03:16:01;6.28;;;4.72;;
27003;SDS011;14546;47.590;19.022;2023-04-03T03:18:27;7.38;;;4.68;;
27003;SDS011;14546;47.590;19.022;2023-04-03T03:20:54;7.35;;;4.60;;
27003;SDS011;14546;47.590;19.022;2023-04-03T03:23:21;7.40;;;4.93;;
27003;SDS011;14546;47.590;19.022;2023-04-03T03:25:48;6.28;;;5.20;;
27003;SDS011;14546;47.590;19.022;2023-04-03T03:28:14;8.10;;;6.00;;
27003;SDS011;14546;47.590;19.022;2023-04-03T03:30:40;7.25;;;5.43;;
27003;SDS011;14546;47.590;19.022;2023-04-03T03:33:06;7.38;;;4.93;;
27003;SDS011;14546;47.590;19.022;2023-04-03T03:35:32;6.30;;;5.15;;
27003;SDS011;14546;47.590;19.022;2023-04-03T03:37:57;9.95;;;5.20;;
27003;SDS011;14546;47.590;19.022;2023-04-03T03:40:23;7.65;;;5.22;;
27003;SDS011;14546;47.590;19.022;2023-04-03T03:42:49;7.40;;;5.05;;
27003;SDS011;14546;47.590;19.022;2023-04-03T03:45:17;8.18;;;5.45;;
27003;SDS011;14546;47.590;19.022;2023-04-03T03:47:43;8.20;;;5.40;;
27003;SDS011;14546;47.590;19.022;2023-04-03T03:50:09;8.23;;;6.28;;
27003;SDS011;14546;47.590;19.022;2023-04-03T03:52:35;9.23;;;6.03;;
27003;SDS011;14546;47.590;19.022;2023-04-03T03:55:00;10.30;;;5.95;;
27003;SDS011;14546;47.590;19.022;2023-04-03T03:57:26;8.32;;;6.38;;
27003;SDS011;14546;47.590;19.022;2023-04-03T03:59:53;8.05;;;5.55;;
27003;SDS011;14546;47.590;19.022;2023-04-03T04:02:20;10.30;;;6.22;;
27003;SDS011;14546;47.590;19.022;2023-04-03T04:04:45;9.07;;;6.50;;
27003;SDS011;14546;47.590;19.022;2023-04-03T04:07:11;8.15;;;5.97;;
27003;SDS011;14546;47.590;19.022;2023-04-03T04:09:37;7.80;;;6.03;;
27003;SDS011;14546;47.590;19.022;2023-04-03T04:12:02;8.13;;;6.13;;
27003;SDS011;14546;47.590;19.022;2023-04-03T04:14:28;9.30;;;6.18;;
27003;SDS011;14546;47.590;19.022;2023-04-03T04:16:54;10.95;;;6.68;;
27003;SDS011;14546;47.590;19.022;2023-04-03T04:19:20;10.65;;;6.53;;
27003;SDS011;14546;47.590;19.022;2023-04-03T04:21:45;11.82;;;6.90;;
27003;SDS011;14546;47.590;19.022;2023-04-03T04:24:11;10.65;;;6.80;;
27003;SDS011;14546;47.590;19.022;2023-04-03T04:26:37;9.80;;;6.28;;
27003;SDS011;14546;47.590;19.022;2023-04-03T04:29:02;8.38;;;6.25;;
27003;SDS011;14546;47.590;19.022;2023-04-03T04:31:28;10.93;;;6.93;;
27003;SDS011;14546;47.590;19.022;2023-04-03T04:33:54;9.13;;;6.90;;
27003;SDS011;14546;47.590;19.022;2023-04-03T04:36:19;10.32;;;7.35;;
27003;SDS011;14546;47.590;19.022;2023-04-03T04:38:45;15.55;;;7.78;;
27003;SDS011;14546;47.590;19.022;2023-04-03T04:41:11;10.52;;;6.97;;
27003;SDS011;14546;47.590;19.022;2023-04-03T04:43:36;9.23;;;6.85;;
27003;SDS011;14546;47.590;19.022;2023-04-03T04:48:32;9.30;;;6.72;;
27003;SDS011;14546;47.590;19.022;2023-04-03T04:50:58;11.63;;;7.05;;
27003;SDS011;14546;47.590;19.022;2023-04-03T04:53:24;10.13;;;6.65;;
27003;SDS011;14546;47.590;19.022;2023-04-03T04:55:50;10.98;;;6.55;;
27003;SDS011;14546;47.590;19.022;2023-04-03T04:58:16;8.23;;;5.93;;
27003;SDS011;14546;47.590;19.022;2023-04-03T05:00:42;8.82;;;6.50;;
27003;SDS011;14546;47.590;19.022;2023-04-03T05:03:08;15.57;;;6.35;;
27003;SDS011;14546;47.590;19.022;2023-04-03T05:05:33;11.55;;;6.75;;
27003;SDS011;14546;47.590;19.022;2023-04-03T05:08:00;9.57;;;6.43;;
27003;SDS011;14546;47.590;19.022;2023-04-03T05:10:27;8.45;;;6.10;;
27003;SDS011;14546;47.590;19.022;2023-04-03T05:12:52;7.85;;;5.43;;
27003;SDS011;14546;47.590;19.022;2023-04-03T05:15:18;9.60;;;6.13;;
27003;SDS011;14546;47.590;19.022;2023-04-03T05:17:44;8.07;;;5.78;;
27003;SDS011;14546;47.590;19.022;2023-04-03T05:20:10;10.32;;;6.68;;
27003;SDS011;14546;47.590;19.022;2023-04-03T05:22:36;8.30;;;6.07;;
27003;SDS011;14546;47.590;19.022;2023-04-03T05:25:03;8.27;;;6.28;;
27003;SDS011;14546;47.590;19.022;2023-04-03T05:27:29;9.30;;;7.05;;
27003;SDS011;14546;47.590;19.022;2023-04-03T05:29:55;8.43;;;6.07;;
27003;SDS011;14546;47.590;19.022;2023-04-03T05:32:21;8.38;;;5.57;;
27003;SDS011;14546;47.590;19.022;2023-04-03T05:34:48;11.15;;;6.28;;
27003;SDS011;14546;47.590;19.022;2023-04-03T05:37:13;9.68;;;5.72;;
27003;SDS011;14546;47.590;19.022;2023-04-03T05:39:39;11.43;;;6.50;;
27003;SDS011;14546;47.590;19.022;2023-04-03T05:42:06;8.77;;;6.50;;
27003;SDS011;14546;47.590;19.022;2023-04-03T05:44:32;9.82;;;5.97;;
27003;SDS011;14546;47.590;19.022;2023-04-03T05:46:58;8.18;;;6.05;;
27003;SDS011;14546;47.590;19.022;2023-04-03T05:49:23;8.27;;;6.57;;
27003;SDS011;14546;47.590;19.022;2023-04-03T05:51:49;8.95;;;6.18;;
27003;SDS011;14546;47.590;19.022;2023-04-03T05:54:20;8.77;;;6.38;;
27003;SDS011;14546;47.590;19.022;2023-04-03T05:56:49;8.73;;;6.18;;
27003;SDS011;14546;47.590;19.022;2023-04-03T05:59:16;10.05;;;6.90;;
27003;SDS011;14546;47.590;19.022;2023-04-03T06:01:42;7.82;;;6.03;;
27003;SDS011;14546;47.590;19.022;2023-04-03T06:04:08;7.45;;;5.68;;
27003;SDS011;14546;47.590;19.022;2023-04-03T06:06:50;8.35;;;5.63;;
27003;SDS011;14546;47.590;19.022;2023-04-03T06:09:18;10.45;;;6.63;;
27003;SDS011;14546;47.590;19.022;2023-04-03T06:11:46;7.80;;;5.05;;
27003;SDS011;14546;47.590;19.022;2023-04-03T06:14:12;5.95;;;4.68;;
27003;SDS011;14546;47.590;19.022;2023-04-03T06:16:38;6.15;;;4.43;;
27003;SDS011;14546;47.590;19.022;2023-04-03T06:19:04;7.97;;;4.75;;
27003;SDS011;14546;47.590;19.022;2023-04-03T06:21:32;6.40;;;4.40;;
27003;SDS011;14546;47.590;19.022;2023-04-03T06:23:57;8.55;;;4.30;;
27003;SDS011;14546;47.590;19.022;2023-04-03T06:26:23;5.97;;;3.90;;
27003;SDS011;14546;47.590;19.022;2023-04-03T06:28:49;6.43;;;3.40;;
27003;SDS011;14546;47.590;19.022;2023-04-03T06:31:15;5.47;;;3.50;;
27003;SDS011;14546;47.590;19.022;2023-04-03T06:33:41;5.25;;;3.08;;
27003;SDS011;14546;47.590;19.022;2023-04-03T06:36:07;5.43;;;3.05;;
27003;SDS011;14546;47.590;19.022;2023-04-03T06:38:35;4.82;;;3.03;;
27003;SDS011;14546;47.590;19.022;2023-04-03T06:41:01;5.38;;;2.95;;
27003;SDS011;14546;47.590;19.022;2023-04-03T06:43:26;4.70;;;2.92;;
27003;SDS011;14546;47.590;19.022;2023-04-03T06:45:52;3.45;;;2.55;;
27003;SDS011;14546;47.590;19.022;2023-04-03T06:48:18;4.00;;;2.58;;
27003;SDS011;14546;47.590;19.022;2023-04-03T06:50:43;3.72;;;2.60;;
27003;SDS011;14546;47.590;19.022;2023-04-03T06:53:09;7.03;;;2.80;;
27003;SDS011;14546;47.590;19.022;2023-04-03T06:55:35;4.03;;;2.60;;
27003;SDS011;14546;47.590;19.022;2023-04-03T06:58:02;5.47;;;2.55;;
27003;SDS011;14546;47.590;19.022;2023-04-03T07:00:28;3.25;;;2.13;;
27003;SDS011;14546;47.590;19.022;2023-04-03T07:02:55;3.47;;;2.50;;
27003;SDS011;14546;47.590;19.022;2023-04-03T07:05:22;4.05;;;2.47;;
27003;SDS011;14546;47.590;19.022;2023-04-03T07:07:49;3.55;;;2.40;;
27003;SDS011;14546;47.590;19.022;2023-04-03T07:10:15;2.67;;;2.00;;
27003;SDS011;14546;47.590;19.022;2023-04-03T07:12:41;4.22;;;2.00;;
27003;SDS011;14546;47.590;19.022;2023-04-03T07:15:07;3.25;;;2.17;;
27003;SDS011;14546;47.590;19.022;2023-04-03T07:17:33;3.28;;;2.17;;
27003;SDS011;14546;47.590;19.022;2023-04-03T07:19:59;3.22;;;2.13;;
27003;SDS011;14546;47.590;19.022;2023-04-03T07:22:25;5.03;;;2.83;;
27003;SDS011;14546;47.590;19.022;2023-04-03T07:24:51;3.97;;;2.35;;
27003;SDS011;14546;47.590;19.022;2023-04-03T07:27:16;3.85;;;2.22;;
27003;SDS011;14546;47.590;19.022;2023-04-03T07:29:42;3.92;;;2.50;;
27003;SDS011;14546;47.590;19.022;2023-04-03T07:32:09;3.00;;;2.13;;
27003;SDS011;14546;47.590;19.022;2023-04-03T07:34:34;1.85;;;1.55;;
27003;SDS011;14546;47.590;19.022;2023-04-03T07:37:00;4.35;;;1.90;;
27003;SDS011;14546;47.590;19.022;2023-04-03T07:39:27;2.33;;;1.77;;
27003;SDS011;14546;47.590;19.022;2023-04-03T07:41:53;3.28;;;2.05;;
27003;SDS011;14546;47.590;19.022;2023-04-03T07:44:20;2.03;;;1.60;;
27003;SDS011;14546;47.590;19.022;2023-04-03T07:46:46;5.18;;;2.25;;
27003;SDS011;14546;47.590;19.022;2023-04-03T07:49:13;2.67;;;2.20;;
27003;SDS011;14546;47.590;19.022;2023-04-03T07:51:39;2.60;;;1.70;;
27003;SDS011;14546;47.590;19.022;2023-04-03T07:54:05;2.17;;;1.60;;
27003;SDS011;14546;47.590;19.022;2023-04-03T07:56:31;2.60;;;1.60;;
27003;SDS011;14546;47.590;19.022;2023-04-03T07:58:57;4.38;;;1.70;;
27003;SDS011;14546;47.590;19.022;2023-04-03T08:01:23;7.55;;;2.17;;
27003;SDS011;14546;47.590;19.022;2023-04-03T08:03:48;4.65;;;1.83;;
27003;SDS011;14546;47.590;19.022;2023-04-03T08:06:14;2.13;;;1.65;;
27003;SDS011;14546;47.590;19.022;2023-04-03T08:08:40;1.67;;;1.20;;
27003;SDS011;14546;47.590;19.022;2023-04-03T08:11:06;1.90;;;1.60;;
27003;SDS011;14546;47.590;19.022;2023-04-03T08:13:33;2.90;;;1.60;;
27003;SDS011;14546;47.590;19.022;2023-04-03T08:16:07;1.60;;;1.40;;
27003;SDS011;14546;47.590;19.022;2023-04-03T08:18:34;1.92;;;1.45;;
27003;SDS011;14546;47.590;19.022;2023-04-03T08:21:00;1.77;;;1.42;;
27003;SDS011;14546;47.590;19.022;2023-04-03T08:23:26;4.30;;;1.50;;
27003;SDS011;14546;47.590;19.022;2023-04-03T08:25:51;1.73;;;1.25;;
27003;SDS011;14546;47.590;19.022;2023-04-03T08:28:17;1.90;;;1.20;;
27003;SDS011;14546;47.590;19.022;2023-04-03T08:30:44;3.03;;;1.33;;
27003;SDS011;14546;47.590;19.022;2023-04-03T08:33:11;2.03;;;1.23;;
27003;SDS011;14546;47.590;19.022;2023-04-03T08:35:40;2.65;;;1.27;;
27003;SDS011;14546;47.590;19.022;2023-04-03T08:38:06;2.17;;;1.20;;
27003;SDS011;14546;47.590;19.022;2023-04-03T08:40:33;2.85;;;1.30;;
27003;SDS011;14546;47.590;19.022;2023-04-03T08:48:17;1.60;;;1.33;;
27003;SDS011;14546;47.590;19.022;2023-04-03T08:50:47;3.10;;;1.30;;
27003;SDS011;14546;47.590;19.022;2023-04-03T08:53:29;1.52;;;1.20;;
27003;SDS011;14546;47.590;19.022;2023-04-03T08:55:58;1.92;;;1.30;;
27003;SDS011;14546;47.590;19.022;2023-04-03T08:58:40;2.67;;;1.30;;
27003;SDS011;14546;47.590;19.022;2023-04-03T09:01:23;2.33;;;1.25;;
27003;SDS011;14546;47.590;19.022;2023-04-03T09:03:49;2.05;;;1.67;;
27003;SDS011;14546;47.590;19.022;2023-04-03T09:06:23;1.48;;;1.00;;
27003;SDS011;14546;47.590;19.022;2023-04-03T09:17:03;1.45;;;1.35;;
27003;SDS011;14546;47.590;19.022;2023-04-03T09:21:56;1.50;;;1.30;;
27003;SDS011;14546;47.590;19.022;2023-04-03T09:24:24;1.23;;;1.13;;
27003;SDS011;14546;47.590;19.022;2023-04-03T09:29:28;1.80;;;1.10;;
27003;SDS011;14546;47.590;19.022;2023-04-03T09:31:58;2.03;;;1.33;;
27003;SDS011;14546;47.590;19.022;2023-04-03T09:36:53;1.63;;;1.23;;
27003;SDS011;14546;47.590;19.022;2023-04-03T09:39:22;5.25;;;1.40;;
27003;SDS011;14546;47.590;19.022;2023-04-03T09:42:06;13.77;;;5.57;;
27003;SDS011;14546;47.590;19.022;2023-04-03T09:45:00;1.95;;;1.02;;
27003;SDS011;14546;47.590;19.022;2023-04-03T09:47:29;1.40;;;1.13;;
27003;SDS011;14546;47.590;19.022;2023-04-03T09:52:41;3.72;;;1.05;;
27003;SDS011;14546;47.590;19.022;2023-04-03T09:55:19;2.00;;;1.08;;
27003;SDS011;14546;47.590;19.022;2023-04-03T09:57:58;0.95;;;0.82;;
27003;SDS011;14546;47.590;19.022;2023-04-03T10:00:26;1.35;;;0.85;;
27003;SDS011;14546;47.590;19.022;2023-04-03T10:02:58;2.10;;;1.20;;
27003;SDS011;14546;47.590;19.022;2023-04-03T10:05:37;1.92;;;1.08;;
27003;SDS011;14546;47.590;19.022;2023-04-03T10:08:19;1.63;;;1.00;;
27003;SDS011;14546;47.590;19.022;2023-04-03T10:11:05;8.40;;;1.45;;
27003;SDS011;14546;47.590;19.022;2023-04-03T10:13:49;1.55;;;1.10;;
27003;SDS011;14546;47.590;19.022;2023-04-03T10:16:39;2.45;;;0.95;;
27003;SDS011;14546;47.590;19.022;2023-04-03T10:27:20;2.58;;;1.30;;
27003;SDS011;14546;47.590;19.022;2023-04-03T10:30:13;1.60;;;1.23;;
27003;SDS011;14546;47.590;19.022;2023-04-03T10:35:53;1.40;;;1.15;;
27003;SDS011;14546;47.590;19.022;2023-04-03T10:46:38;1.85;;;1.20;;
27003;SDS011;14546;47.590;19.022;2023-04-03T10:51:46;3.17;;;1.40;;
27003;SDS011;14546;47.590;19.022;2023-04-03T10:54:26;0.80;;;0.77;;
27003;SDS011;14546;47.590;19.022;2023-04-03T10:57:08;1.67;;;1.08;;
27003;SDS011;14546;47.590;19.022;2023-04-03T11:04:42;1.77;;;1.10;;
27003;SDS011;14546;47.590;19.022;2023-04-03T11:09:46;1.38;;;0.90;;
27003;SDS011;14546;47.590;19.022;2023-04-03T11:12:21;4.20;;;1.00;;
27003;SDS011;14546;47.590;19.022;2023-04-03T11:15:12;2.30;;;1.13;;
27003;SDS011;14546;47.590;19.022;2023-04-03T11:17:43;1.58;;;1.00;;
27003;SDS011;14546;47.590;19.022;2023-04-03T11:22:43;1.45;;;1.00;;
27003;SDS011;14546;47.590;19.022;2023-04-03T11:25:18;1.80;;;1.30;;
27003;SDS011;14546;47.590;19.022;2023-04-03T11:33:24;1.27;;;1.08;;
27003;SDS011;14546;47.590;19.022;2023-04-03T11:35:57;1.75;;;1.00;;
27003;SDS011;14546;47.590;19.022;2023-04-03T11:38:36;2.10;;;1.23;;
27003;SDS011;14546;47.590;19.022;2023-04-03T11:41:07;1.33;;;1.00;;
27003;SDS011;14546;47.590;19.022;2023-04-03T11:43:39;2.00;;;1.20;;
27003;SDS011;14546;47.590;19.022;2023-04-03T11:46:08;4.68;;;1.08;;
27003;SDS011;14546;47.590;19.022;2023-04-03T11:53:38;1.90;;;1.20;;
27003;SDS011;14546;47.590;19.022;2023-04-03T12:04:16;1.52;;;1.00;;
27003;SDS011;14546;47.590;19.022;2023-04-03T12:06:49;1.77;;;1.10;;
27003;SDS011;14546;47.590;19.022;2023-04-03T12:11:49;1.42;;;1.00;;
27003;SDS011;14546;47.590;19.022;2023-04-03T12:14:16;1.23;;;1.02;;
27003;SDS011;14546;47.590;19.022;2023-04-03T12:24:35;1.50;;;0.90;;
27003;SDS011;14546;47.590;19.022;2023-04-03T12:30:21;2.20;;;1.05;;
27003;SDS011;14546;47.590;19.022;2023-04-03T12:32:56;1.55;;;1.25;;
27003;SDS011;14546;47.590;19.022;2023-04-03T12:35:31;3.38;;;1.20;;
27003;SDS011;14546;47.590;19.022;2023-04-03T12:41:40;3.28;;;1.23;;
27003;SDS011;14546;47.590;19.022;2023-04-03T12:47:22;3.70;;;1.02;;
27003;SDS011;14546;47.590;19.022;2023-04-03T12:49:52;2.08;;;1.17;;
27003;SDS011;14546;47.590;19.022;2023-04-03T12:54:59;1.23;;;1.08;;
27003;SDS011;14546;47.590;19.022;2023-04-03T12:57:29;1.65;;;1.10;;
27003;SDS011;14546;47.590;19.022;2023-04-03T12:59:55;1.38;;;1.10;;
27003;SDS011;14546;47.590;19.022;2023-04-03T13:04:55;4.40;;;1.10;;
27003;SDS011;14546;47.590;19.022;2023-04-03T13:07:33;1.05;;;0.80;;
27003;SDS011;14546;47.590;19.022;2023-04-03T13:12:32;1.92;;;1.30;;
27003;SDS011;14546;47.590;19.022;2023-04-03T13:15:15;1.77;;;1.10;;
27003;SDS011;14546;47.590;19.022;2023-04-03T13:17:47;2.95;;;1.15;;
27003;SDS011;14546;47.590;19.022;2023-04-03T13:20:23;5.15;;;1.23;;
27003;SDS011;14546;47.590;19.022;2023-04-03T13:23:00;2.05;;;1.10;;
27003;SDS011;14546;47.590;19.022;2023-04-03T13:25:28;7.07;;;1.40;;
27003;SDS011;14546;47.590;19.022;2023-04-03T13:27:56;2.45;;;1.30;;
27003;SDS011;14546;47.590;19.022;2023-04-03T13:30:34;1.45;;;1.20;;
27003;SDS011;14546;47.590;19.022;2023-04-03T13:33:03;1.70;;;1.10;;
27003;SDS011;14546;47.590;19.022;2023-04-03T13:38:02;1.33;;;1.10;;
27003;SDS011;14546;47.590;19.022;2023-04-03T13:40:48;1.52;;;1.20;;
27003;SDS011;14546;47.590;19.022;2023-04-03T13:43:17;2.35;;;1.38;;
27003;SDS011;14546;47.590;19.022;2023-04-03T13:46:03;2.80;;;1.30;;
27003;SDS011;14546;47.590;19.022;2023-04-03T13:48:35;2.45;;;1.20;;
27003;SDS011;14546;47.590;19.022;2023-04-03T13:51:04;1.35;;;1.10;;
27003;SDS011;14546;47.590;19.022;2023-04-03T13:53:44;1.75;;;0.93;;
27003;SDS011;14546;47.590;19.022;2023-04-03T14:01:22;1.30;;;1.13;;
27003;SDS011;14546;47.590;19.022;2023-04-03T14:06:21;2.90;;;0.90;;
27003;SDS011;14546;47.590;19.022;2023-04-03T14:08:48;4.53;;;1.10;;
27003;SDS011;14546;47.590;19.022;2023-04-03T14:11:19;1.95;;;1.33;;
27003;SDS011;14546;47.590;19.022;2023-04-03T14:13:53;1.98;;;1.13;;
27003;SDS011;14546;47.590;19.022;2023-04-03T14:16:31;3.38;;;1.23;;
27003;SDS011;14546;47.590;19.022;2023-04-03T14:19:02;2.28;;;1.20;;
27003;SDS011;14546;47.590;19.022;2023-04-03T14:21:28;1.73;;;1.17;;
27003;SDS011;14546;47.590;19.022;2023-04-03T14:23:53;4.53;;;1.67;;
27003;SDS011;14546;47.590;19.022;2023-04-03T14:26:21;2.45;;;1.63;;
27003;SDS011;14546;47.590;19.022;2023-04-03T14:28:52;1.55;;;1.20;;
27003;SDS011;14546;47.590;19.022;2023-04-03T14:31:19;3.92;;;1.20;;
27003;SDS011;14546;47.590;19.022;2023-04-03T14:33:45;3.35;;;1.33;;
27003;SDS011;14546;47.590;19.022;2023-04-03T14:36:20;4.25;;;1.50;;
27003;SDS011;14546;47.590;19.022;2023-04-03T14:38:49;3.22;;;1.40;;
27003;SDS011;14546;47.590;19.022;2023-04-03T14:41:16;1.90;;;1.38;;
27003;SDS011;14546;47.590;19.022;2023-04-03T14:43:44;2.00;;;1.50;;
27003;SDS011;14546;47.590;19.022;2023-04-03T14:46:18;5.03;;;2.63;;
27003;SDS011;14546;47.590;19.022;2023-04-03T14:48:48;2.58;;;1.63;;
27003;SDS011;14546;47.590;19.022;2023-04-03T14:51:14;5.60;;;3.33;;
27003;SDS011;14546;47.590;19.022;2023-04-03T14:53:41;2.90;;;2.03;;
27003;SDS011;14546;47.590;19.022;2023-04-03T14:56:27;2.47;;;1.40;;
27003;SDS011;14546;47.590;19.022;2023-04-03T14:58:55;3.15;;;1.95;;
27003;SDS011;14546;47.590;19.022;2023-04-03T15:01:26;2.47;;;1.42;;
27003;SDS011;14546;47.590;19.022;2023-04-03T15:03:53;2.03;;;1.63;;
27003;SDS011;14546;47.590;19.022;2023-04-03T15:06:19;2.42;;;1.60;;
27003;SDS011;14546;47.590;19.022;2023-04-03T15:08:46;2.80;;;1.80;;
27003;SDS011;14546;47.590;19.022;2023-04-03T15:11:13;3.47;;;1.63;;
27003;SDS011;14546;47.590;19.022;2023-04-03T15:13:39;5.10;;;2.30;;
27003;SDS011;14546;47.590;19.022;2023-04-03T15:16:08;4.72;;;1.73;;
27003;SDS011;14546;47.590;19.022;2023-04-03T15:18:41;5.30;;;2.40;;
27003;SDS011;14546;47.590;19.022;2023-04-03T15:21:07;5.32;;;1.83;;
27003;SDS011;14546;47.590;19.022;2023-04-03T15:23:33;4.40;;;1.92;;
27003;SDS011;14546;47.590;19.022;2023-04-03T15:25:58;5.82;;;2.35;;
27003;SDS011;14546;47.590;19.022;2023-04-03T15:30:53;3.00;;;2.20;;
27003;SDS011;14546;47.590;19.022;2023-04-03T15:33:20;2.92;;;1.88;;
27003;SDS011;14546;47.590;19.022;2023-04-03T15:35:46;3.15;;;2.30;;
27003;SDS011;14546;47.590;19.022;2023-04-03T15:38:12;3.38;;;1.85;;
27003;SDS011;14546;47.590;19.022;2023-04-03T15:40:37;6.25;;;2.08;;
27003;SDS011;14546;47.590;19.022;2023-04-03T15:43:04;3.08;;;2.00;;
27003;SDS011;14546;47.590;19.022;2023-04-03T15:45:31;4.63;;;2.13;;
27003;SDS011;14546;47.590;19.022;2023-04-03T15:47:58;4.22;;;2.17;;
27003;SDS011;14546;47.590;19.022;2023-04-03T15:50:24;2.83;;;1.90;;
27003;SDS011;14546;47.590;19.022;2023-04-03T15:52:51;5.45;;;2.17;;
27003;SDS011;14546;47.590;19.022;2023-04-03T15:55:23;4.10;;;1.80;;
27003;SDS011;14546;47.590;19.022;2023-04-03T15:57:50;2.55;;;1.80;;
27003;SDS011;14546;47.590;19.022;2023-04-03T16:00:16;5.95;;;2.03;;
27003;SDS011;14546;47.590;19.022;2023-04-03T16:02:44;4.15;;;2.67;;
27003;SDS011;14546;47.590;19.022;2023-04-03T16:05:11;3.78;;;2.08;;
27003;SDS011;14546;47.590;19.022;2023-04-03T16:07:38;2.22;;;1.80;;
27003;SDS011;14546;47.590;19.022;2023-04-03T16:10:05;2.42;;;1.80;;
27003;SDS011;14546;47.590;19.022;2023-04-03T16:12:32;6.00;;;1.60;;
27003;SDS011;14546;47.590;19.022;2023-04-03T16:14:58;2.22;;;1.70;;
27003;SDS011;14546;47.590;19.022;2023-04-03T16:17:25;2.33;;;1.45;;
27003;SDS011;14546;47.590;19.022;2023-04-03T16:19:52;2.72;;;1.60;;
27003;SDS011;14546;47.590;19.022;2023-04-03T16:22:19;4.25;;;1.80;;
27003;SDS011;14546;47.590;19.022;2023-04-03T16:24:48;3.13;;;1.65;;
27003;SDS011;14546;47.590;19.022;2023-04-03T16:27:14;6.63;;;2.13;;
27003;SDS011;14546;47.590;19.022;2023-04-03T16:29:40;13.48;;;2.78;;
27003;SDS011;14546;47.590;19.022;2023-04-03T16:32:06;5.30;;;2.28;;
27003;SDS011;14546;47.590;19.022;2023-04-03T16:34:32;8.70;;;5.32;;
27003;SDS011;14546;47.590;19.022;2023-04-03T16:36:58;6.88;;;3.00;;
27003;SDS011;14546;47.590;19.022;2023-04-03T16:39:24;7.07;;;2.45;;
27003;SDS011;14546;47.590;19.022;2023-04-03T16:41:50;6.13;;;3.83;;
27003;SDS011;14546;47.590;19.022;2023-04-03T16:44:16;4.20;;;1.88;;
27003;SDS011;14546;47.590;19.022;2023-04-03T16:46:42;3.45;;;2.45;;
27003;SDS011;14546;47.590;19.022;2023-04-03T16:49:09;8.32;;;2.00;;
27003;SDS011;14546;47.590;19.022;2023-04-03T16:51:34;9.88;;;2.05;;